Time;durP1;ratioP1;P1;durP2;ratioP2;P2;SDS_P1;SDS_P2;PMS_P1;PMS_P2;Temp;Humidity;BMP_temperature;BMP_pressure;BME280_temperature;BME280_humidity;BME280_pressure;Samples;Min_cycle;Max_cycle;Signal;HPM_P1;HPM_P2
2022/07/21 00:01:05;;;;;;;;;;;20.00;99.90;;;;;;5042795;28;20224;-78
2022/07/21 00:03:30;;;;;;;;;;;20.00;99.90;;;;;;5047490;28;19951;-84
2022/07/21 00:05:56;;;;;;;;;;;20.00;99.90;;;;;;5054003;28;20375;-78
2022/07/21 00:08:22;;;;;;;;;;;20.00;99.90;;;;;;5036173;28;19931;-78
2022/07/21 00:10:48;;;;;;;;;;;20.00;99.90;;;;;;5036941;28;19916;-78
2022/07/21 00:13:13;;;;;;;;;;;20.00;99.90;;;;;;5036394;28;19913;-90
2022/07/21 00:15:39;;;;;;;;;;;20.10;99.90;;;;;;5036341;28;20297;-76
2022/07/21 00:18:12;;;;;;;;;;;20.00;99.90;;;;;;5041152;28;19909;-76
2022/07/21 00:20:38;;;;;;;;;;;20.00;99.90;;;;;;5049701;28;20243;-77
2022/07/21 00:23:04;;;;;;;;;;;20.00;99.90;;;;;;5056780;28;20015;-76
2022/07/21 00:25:29;;;;;;;;;;;19.90;99.90;;;;;;5044175;28;19960;-77
2022/07/21 00:27:59;;;;;;;;;;;19.90;99.90;;;;;;5055539;28;19913;-75
2022/07/21 00:30:25;;;;;;;;;;;19.90;99.90;;;;;;5043788;28;19913;-81
2022/07/21 00:32:53;;;;;;;;;;;19.80;99.90;;;;;;5054755;28;20219;-76
2022/07/21 00:35:19;;;;;;;;;;;19.80;99.90;;;;;;5030856;28;19921;-77
2022/07/21 00:37:45;;;;;;;;;;;19.80;99.90;;;;;;5033061;28;20308;-77
2022/07/21 00:40:10;;;;;;;;;;;19.80;99.90;;;;;;5033447;28;19909;-77
2022/07/21 00:42:36;;;;;;;;;;;19.80;99.90;;;;;;5034485;28;19913;-84
2022/07/21 00:45:03;;;;;;;;;;;19.80;99.90;;;;;;5035051;28;19923;-79
2022/07/21 00:47:29;;;;;;;;;;;19.70;99.90;;;;;;5034508;28;19963;-79
2022/07/21 00:49:56;;;;;;;;;;;19.80;99.90;;;;;;5033940;28;19917;-75
2022/07/21 00:52:21;;;;;;;;;;;19.80;99.90;;;;;;5034455;28;20305;-76
2022/07/21 00:54:47;;;;;;;;;;;19.80;99.90;;;;;;5035094;28;19963;-76
2022/07/21 00:57:14;;;;;;;;;;;19.80;99.90;;;;;;5035581;28;19913;-79
2022/07/21 00:59:40;;;;;;;;;;;19.70;99.90;;;;;;5034651;28;20209;-91
2022/07/21 01:02:06;;;;;;;;;;;19.80;99.90;;;;;;5035966;28;19910;-76
2022/07/21 01:04:31;;;;;;;;;;;19.70;99.90;;;;;;5035175;28;20035;-76
2022/07/21 01:07:00;;;;;;;;;;;19.70;99.90;;;;;;5037145;28;19917;-77
2022/07/21 01:09:25;;;;;;;;;;;19.80;99.90;;;;;;5034654;28;19921;-79
2022/07/21 01:11:51;;;;;;;;;;;19.70;99.90;;;;;;5035317;28;19917;-77
2022/07/21 01:14:16;;;;;;;;;;;19.70;99.90;;;;;;5034956;28;20031;-79
2022/07/21 01:16:43;;;;;;;;;;;19.70;99.90;;;;;;5033335;28;19913;-78
2022/07/21 01:19:08;;;;;;;;;;;19.70;99.90;;;;;;5035092;28;19995;-79
2022/07/21 01:21:36;;;;;;;;;;;19.80;99.90;;;;;;5034922;28;20047;-78
2022/07/21 01:24:02;;;;;;;;;;;19.70;99.90;;;;;;5034158;28;20008;-79
2022/07/21 01:26:29;;;;;;;;;;;19.70;99.90;;;;;;5027525;28;19917;-78
2022/07/21 01:28:55;;;;;;;;;;;19.70;99.90;;;;;;5034161;28;19971;-79
2022/07/21 01:31:21;;;;;;;;;;;19.70;99.90;;;;;;5034933;28;19913;-78
2022/07/21 01:33:46;;;;;;;;;;;19.60;99.90;;;;;;5033148;28;19935;-79
2022/07/21 01:36:12;;;;;;;;;;;19.60;99.90;;;;;;5034578;28;19917;-79
2022/07/21 01:41:32;;;;;;;;;;;19.70;99.90;;;;;;5034702;28;20208;-85
2022/07/21 01:44:00;;;;;;;;;;;19.60;99.90;;;;;;5032854;28;20016;-79
2022/07/21 01:46:26;;;;;;;;;;;19.60;99.90;;;;;;5034048;28;20009;-79
2022/07/21 01:48:52;;;;;;;;;;;19.70;99.90;;;;;;5029493;28;20336;-87
2022/07/21 01:51:18;;;;;;;;;;;19.60;99.90;;;;;;5033242;28;19917;-80
2022/07/21 01:53:43;;;;;;;;;;;19.60;99.90;;;;;;5033476;28;19913;-80
2022/07/21 01:56:09;;;;;;;;;;;19.60;99.90;;;;;;5032377;28;19939;-79
2022/07/21 01:58:34;;;;;;;;;;;19.60;99.90;;;;;;5033725;28;20039;-80
2022/07/21 02:01:00;;;;;;;;;;;19.60;99.90;;;;;;5031889;28;19924;-78
2022/07/21 02:03:26;;;;;;;;;;;19.60;99.90;;;;;;5033434;28;19925;-79
2022/07/21 02:05:51;;;;;;;;;;;19.60;99.90;;;;;;5018379;28;19917;-88
2022/07/21 02:08:17;;;;;;;;;;;19.50;99.90;;;;;;5034601;28;20011;-80
2022/07/21 02:10:44;;;;;;;;;;;19.60;99.90;;;;;;5031356;28;20321;-78
2022/07/21 02:13:10;;;;;;;;;;;19.50;99.90;;;;;;5033393;28;19963;-80
2022/07/21 02:15:36;;;;;;;;;;;19.50;99.90;;;;;;5034688;28;19921;-80
2022/07/21 02:18:02;;;;;;;;;;;19.50;99.90;;;;;;5033041;28;20308;-80
2022/07/21 02:20:28;;;;;;;;;;;19.50;99.90;;;;;;5032889;28;19960;-79
2022/07/21 02:22:53;;;;;;;;;;;19.50;99.90;;;;;;5033343;28;19943;-80
2022/07/21 02:25:19;;;;;;;;;;;19.50;99.90;;;;;;5033495;28;19928;-79
2022/07/21 02:27:45;;;;;;;;;;;19.50;99.90;;;;;;5031832;28;19932;-77
2022/07/21 02:30:11;;;;;;;;;;;19.50;99.90;;;;;;5031607;28;19917;-78
2022/07/21 02:32:37;;;;;;;;;;;19.60;99.90;;;;;;5034053;28;20260;-87
2022/07/21 02:35:02;;;;;;;;;;;19.50;99.90;;;;;;5033741;28;19913;-81
2022/07/21 02:37:28;;;;;;;;;;;19.50;99.90;;;;;;5033173;28;19920;-81
2022/07/21 02:39:54;;;;;;;;;;;19.50;99.90;;;;;;5036210;28;19932;-80
2022/07/21 02:42:19;;;;;;;;;;;19.50;99.90;;;;;;5033398;28;19925;-86
2022/07/21 02:44:45;;;;;;;;;;;19.50;99.90;;;;;;5036325;28;19966;-79
2022/07/21 02:47:11;;;;;;;;;;;19.40;99.90;;;;;;5037275;28;19975;-80
2022/07/21 02:49:37;;;;;;;;;;;19.40;99.90;;;;;;5035504;28;19913;-80
2022/07/21 02:52:02;;;;;;;;;;;19.40;99.90;;;;;;5037046;28;19913;-81
2022/07/21 02:54:28;;;;;;;;;;;19.40;99.90;;;;;;5037304;28;19959;-81
2022/07/21 02:56:53;;;;;;;;;;;19.40;99.90;;;;;;5036517;28;20223;-79
2022/07/21 02:59:19;;;;;;;;;;;19.50;99.90;;;;;;5035919;28;20285;-85
2022/07/21 03:01:45;;;;;;;;;;;19.50;99.90;;;;;;5036392;28;19921;-80
2022/07/21 03:04:11;;;;;;;;;;;19.50;99.90;;;;;;5035928;28;19913;-83
2022/07/21 03:06:37;;;;;;;;;;;19.50;99.90;;;;;;5021259;28;19941;-79
2022/07/21 03:09:03;;;;;;;;;;;19.40;99.90;;;;;;5049644;28;19984;-80
2022/07/21 03:11:28;;;;;;;;;;;19.40;99.90;;;;;;5036996;28;20355;-80
2022/07/21 03:13:54;;;;;;;;;;;19.40;99.90;;;;;;5036352;28;19970;-80
2022/07/21 03:16:21;;;;;;;;;;;19.40;99.90;;;;;;5036633;28;19925;-78
2022/07/21 03:18:47;;;;;;;;;;;19.40;99.90;;;;;;5036315;28;19920;-79
2022/07/21 03:21:12;;;;;;;;;;;19.40;99.90;;;;;;5036284;28;19913;-79
2022/07/21 03:23:38;;;;;;;;;;;19.40;99.90;;;;;;5034016;28;19959;-79
2022/07/21 03:26:04;;;;;;;;;;;19.40;99.90;;;;;;5036743;28;20011;-83
2022/07/21 03:28:30;;;;;;;;;;;19.40;99.90;;;;;;5031827;28;19913;-80
2022/07/21 03:30:56;;;;;;;;;;;19.40;99.90;;;;;;5037519;28;20292;-80
2022/07/21 03:33:21;;;;;;;;;;;19.30;99.90;;;;;;5034724;28;20263;-81
2022/07/21 03:35:47;;;;;;;;;;;19.30;99.90;;;;;;5036237;28;19948;-81
2022/07/21 03:38:12;;;;;;;;;;;19.30;99.90;;;;;;5035756;28;19920;-79
2022/07/21 03:40:38;;;;;;;;;;;19.30;99.90;;;;;;5036378;28;20338;-80
2022/07/21 03:43:04;;;;;;;;;;;19.30;99.90;;;;;;5035539;28;19909;-80
2022/07/21 03:45:30;;;;;;;;;;;19.30;99.90;;;;;;5051622;28;19979;-81
2022/07/21 03:48:00;;;;;;;;;;;19.20;99.90;;;;;;5036172;28;19944;-81
2022/07/21 03:50:27;;;;;;;;;;;19.20;99.90;;;;;;5036333;28;19920;-79
2022/07/21 03:52:53;;;;;;;;;;;19.10;99.90;;;;;;5034980;28;19948;-84
2022/07/21 03:55:19;;;;;;;;;;;19.10;99.90;;;;;;5037701;28;19909;-79
2022/07/21 03:57:46;;;;;;;;;;;19.10;99.90;;;;;;5035405;28;19921;-80
2022/07/21 04:00:17;;;;;;;;;;;19.10;99.90;;;;;;5018206;28;19923;-80
2022/07/21 04:02:44;;;;;;;;;;;19.20;99.90;;;;;;5034792;28;20208;-79
2022/07/21 04:05:10;;;;;;;;;;;19.10;99.90;;;;;;5036082;28;19916;-78
2022/07/21 04:07:36;;;;;;;;;;;19.10;99.90;;;;;;5037334;28;19956;-79
2022/07/21 04:10:02;;;;;;;;;;;19.20;99.90;;;;;;5035853;28;19913;-80
2022/07/21 04:12:28;;;;;;;;;;;19.20;99.90;;;;;;5036919;28;20415;-79
2022/07/21 04:14:56;;;;;;;;;;;19.30;99.90;;;;;;5034971;28;19925;-79
2022/07/21 04:17:22;;;;;;;;;;;19.30;99.90;;;;;;5036898;28;19949;-79
2022/07/21 04:19:48;;;;;;;;;;;19.20;99.90;;;;;;5036043;28;20303;-82
2022/07/21 04:22:13;;;;;;;;;;;19.20;99.90;;;;;;5035973;28;19959;-83
2022/07/21 04:24:39;;;;;;;;;;;19.10;99.90;;;;;;5035272;28;19924;-81
2022/07/21 04:27:04;;;;;;;;;;;19.10;99.90;;;;;;5034491;28;19914;-81
2022/07/21 04:29:30;;;;;;;;;;;19.10;99.90;;;;;;5035926;28;19999;-81
2022/07/21 04:31:56;;;;;;;;;;;19.10;99.90;;;;;;5036356;28;19909;-80
2022/07/21 04:34:21;;;;;;;;;;;19.20;99.90;;;;;;5035091;28;20004;-81
2022/07/21 04:36:47;;;;;;;;;;;19.20;99.90;;;;;;5036450;28;20204;-81
2022/07/21 04:39:12;;;;;;;;;;;19.30;99.90;;;;;;5036007;28;20216;-82
2022/07/21 04:41:38;;;;;;;;;;;19.30;99.90;;;;;;5033680;28;20285;-83
2022/07/21 04:44:03;;;;;;;;;;;19.30;99.90;;;;;;5033886;28;19921;-80
2022/07/21 04:46:29;;;;;;;;;;;19.30;99.90;;;;;;5034803;28;19951;-80
2022/07/21 04:48:54;;;;;;;;;;;19.40;99.90;;;;;;5035477;28;19921;-82
2022/07/21 04:51:20;;;;;;;;;;;19.40;99.90;;;;;;5034600;28;19909;-85
2022/07/21 04:53:47;;;;;;;;;;;19.40;99.90;;;;;;5036781;28;19917;-84
2022/07/21 04:56:12;;;;;;;;;;;19.40;99.90;;;;;;5034968;28;20004;-81
2022/07/21 04:58:38;;;;;;;;;;;19.50;99.90;;;;;;5034969;28;20244;-85
2022/07/21 05:01:03;;;;;;;;;;;19.50;99.90;;;;;;5038567;28;19912;-81
2022/07/21 05:03:29;;;;;;;;;;;19.50;99.90;;;;;;5030870;28;19919;-81
2022/07/21 05:05:55;;;;;;;;;;;19.60;99.90;;;;;;5028002;28;19928;-82
2022/07/21 05:08:20;;;;;;;;;;;19.60;99.90;;;;;;5033827;28;19909;-83
2022/07/21 05:10:46;;;;;;;;;;;19.70;99.90;;;;;;5035826;28;20315;-80
2022/07/21 05:13:12;;;;;;;;;;;19.60;99.90;;;;;;5034368;28;20335;-81
2022/07/21 05:15:38;;;;;;;;;;;19.70;99.90;;;;;;5027201;28;19925;-83
2022/07/21 05:18:07;;;;;;;;;;;19.80;99.90;;;;;;5032881;28;20270;-80
2022/07/21 05:20:32;;;;;;;;;;;19.90;99.90;;;;;;5033828;28;19921;-83
2022/07/21 05:22:58;;;;;;;;;;;19.90;99.90;;;;;;5033968;28;19920;-83
2022/07/21 05:25:23;;;;;;;;;;;19.90;99.90;;;;;;5033480;28;19921;-84
2022/07/21 05:27:49;;;;;;;;;;;20.00;99.90;;;;;;5017719;28;19917;-83
2022/07/21 05:30:14;;;;;;;;;;;20.00;99.90;;;;;;5034692;28;19937;-86
2022/07/21 05:32:40;;;;;;;;;;;20.10;99.90;;;;;;5034115;28;19938;-80
2022/07/21 05:35:11;;;;;;;;;;;20.10;99.90;;;;;;5034014;28;19917;-85
2022/07/21 05:37:38;;;;;;;;;;;20.10;99.90;;;;;;5033544;28;19921;-83
2022/07/21 05:40:03;;;;;;;;;;;20.20;99.90;;;;;;5033740;28;19959;-82
2022/07/21 05:42:29;;;;;;;;;;;20.20;99.90;;;;;;5035245;28;19952;-83
2022/07/21 05:44:56;;;;;;;;;;;20.30;99.90;;;;;;5035324;28;20223;-82
2022/07/21 05:47:21;;;;;;;;;;;20.40;99.90;;;;;;5035118;28;19988;-89
2022/07/21 05:49:47;;;;;;;;;;;20.50;99.90;;;;;;5035989;28;19948;-82
2022/07/21 05:52:13;;;;;;;;;;;20.50;99.90;;;;;;5045563;28;19913;-86
2022/07/21 05:54:38;;;;;;;;;;;20.60;99.90;;;;;;5036579;28;19910;-83
2022/07/21 05:57:04;;;;;;;;;;;20.70;99.90;;;;;;5035302;28;19920;-83
2022/07/21 05:59:29;;;;;;;;;;;20.80;99.90;;;;;;5029714;28;20021;-81
2022/07/21 06:01:55;;;;;;;;;;;20.90;99.90;;;;;;5047338;28;19939;-81
2022/07/21 06:04:20;;;;;;;;;;;20.90;99.90;;;;;;5033803;28;19948;-83
2022/07/21 06:06:46;;;;;;;;;;;20.90;99.90;;;;;;5045212;28;19920;-85
2022/07/21 06:09:12;;;;;;;;;;;21.00;99.90;;;;;;5043381;28;19917;-82
2022/07/21 06:11:37;;;;;;;;;;;21.00;99.90;;;;;;5048740;28;19962;-85
2022/07/21 06:14:03;;;;;;;;;;;21.00;99.90;;;;;;5045533;28;20315;-88
2022/07/21 06:16:29;;;;;;;;;;;21.10;99.90;;;;;;5036177;28;19921;-79
2022/07/21 06:18:54;;;;;;;;;;;21.10;99.90;;;;;;5033979;28;19922;-84
2022/07/21 06:21:20;;;;;;;;;;;21.20;99.90;;;;;;5031980;28;19932;-83
2022/07/21 06:23:46;;;;;;;;;;;21.20;99.90;;;;;;5032084;28;19921;-84
2022/07/21 06:26:11;;;;;;;;;;;21.20;99.90;;;;;;5033664;28;20011;-82
2022/07/21 06:28:37;;;;;;;;;;;21.20;99.90;;;;;;5034541;28;19919;-84
2022/07/21 06:31:02;;;;;;;;;;;21.30;99.90;;;;;;5033877;28;20223;-83
2022/07/21 06:33:29;;;;;;;;;;;21.40;99.90;;;;;;5032171;28;19920;-83
2022/07/21 06:35:54;;;;;;;;;;;21.30;99.90;;;;;;5034604;28;19925;-82
2022/07/21 06:38:20;;;;;;;;;;;21.20;99.90;;;;;;5034540;28;19913;-83
2022/07/21 06:40:46;;;;;;;;;;;21.10;99.90;;;;;;5034051;28;19971;-79
2022/07/21 06:43:12;;;;;;;;;;;21.10;99.90;;;;;;5033011;28;19924;-83
2022/07/21 06:45:37;;;;;;;;;;;21.00;99.90;;;;;;5032954;28;20000;-79
2022/07/21 06:48:04;;;;;;;;;;;21.00;99.90;;;;;;5031655;28;20008;-80
2022/07/21 06:50:31;;;;;;;;;;;21.00;99.90;;;;;;5034259;28;19917;-80
2022/07/21 06:52:56;;;;;;;;;;;21.10;99.90;;;;;;5033086;28;19913;-80
2022/07/21 06:55:22;;;;;;;;;;;21.10;99.90;;;;;;5032848;28;20300;-80
2022/07/21 06:57:47;;;;;;;;;;;21.10;99.90;;;;;;5035480;28;19983;-80
2022/07/21 07:00:13;;;;;;;;;;;21.20;99.90;;;;;;5034639;28;19917;-80
2022/07/21 07:02:39;;;;;;;;;;;21.20;99.90;;;;;;5033780;28;19913;-77
2022/07/21 07:05:04;;;;;;;;;;;21.30;99.90;;;;;;5031720;28;20017;-80
2022/07/21 07:07:30;;;;;;;;;;;21.30;99.90;;;;;;5034183;28;19972;-80
2022/07/21 07:09:56;;;;;;;;;;;21.30;99.90;;;;;;5033967;28;19913;-84
2022/07/21 07:12:22;;;;;;;;;;;21.20;99.90;;;;;;5033110;28;20276;-84
2022/07/21 07:14:47;;;;;;;;;;;21.20;99.90;;;;;;5035526;28;20007;-84
2022/07/21 07:17:20;;;;;;;;;;;21.20;99.90;;;;;;5033140;28;20308;-80
2022/07/21 07:19:46;;;;;;;;;;;21.20;99.90;;;;;;5016257;28;19960;-82
2022/07/21 07:22:11;;;;;;;;;;;21.10;99.90;;;;;;5032547;28;19939;-84
2022/07/21 07:24:37;;;;;;;;;;;21.00;99.90;;;;;;5034072;28;20299;-82
2022/07/21 07:27:03;;;;;;;;;;;21.00;99.90;;;;;;5037589;28;20197;-83
2022/07/21 07:29:28;;;;;;;;;;;20.90;99.90;;;;;;5039672;28;19976;-79
2022/07/21 07:31:54;;;;;;;;;;;20.90;99.90;;;;;;5036410;28;19921;-79
2022/07/21 07:34:20;;;;;;;;;;;20.80;99.90;;;;;;5037907;28;19940;-82
2022/07/21 07:36:45;;;;;;;;;;;20.80;99.90;;;;;;5036841;28;20220;-80
2022/07/21 07:39:11;;;;;;;;;;;20.70;99.90;;;;;;5036566;28;19917;-79
2022/07/21 07:41:37;;;;;;;;;;;20.60;99.90;;;;;;5038265;28;19913;-81
2022/07/21 07:44:03;;;;;;;;;;;20.60;99.90;;;;;;5034671;28;19976;-82
2022/07/21 07:46:28;;;;;;;;;;;20.50;99.90;;;;;;5034461;28;19924;-83
2022/07/21 07:48:55;;;;;;;;;;;20.40;99.90;;;;;;5036162;28;20053;-80
2022/07/21 07:51:20;;;;;;;;;;;20.40;99.90;;;;;;5033895;28;20327;-77
2022/07/21 07:53:46;;;;;;;;;;;20.30;99.90;;;;;;5037419;28;19913;-76
2022/07/21 07:56:11;;;;;;;;;;;20.30;99.90;;;;;;5035197;28;20357;-77
2022/07/21 07:58:37;;;;;;;;;;;20.20;99.90;;;;;;5040009;28;20196;-78
2022/07/21 08:01:03;;;;;;;;;;;20.20;99.90;;;;;;5039640;28;19917;-78
2022/07/21 08:03:28;;;;;;;;;;;20.10;99.90;;;;;;5031415;28;19928;-77
2022/07/21 08:05:55;;;;;;;;;;;20.10;99.90;;;;;;5033110;28;19933;-73
2022/07/21 08:08:21;;;;;;;;;;;20.00;99.90;;;;;;5035950;28;19957;-74
2022/07/21 08:10:47;;;;;;;;;;;19.90;99.90;;;;;;5036222;28;20283;-75
2022/07/21 08:13:13;;;;;;;;;;;20.00;99.90;;;;;;5034118;28;20017;-81
2022/07/21 08:15:39;;;;;;;;;;;20.00;99.90;;;;;;5036241;28;20011;-75
2022/07/21 08:18:08;;;;;;;;;;;19.90;99.90;;;;;;5032852;28;20128;-75
2022/07/21 08:20:34;;;;;;;;;;;19.90;99.90;;;;;;5033690;28;19913;-74
2022/07/21 08:22:59;;;;;;;;;;;19.80;99.90;;;;;;5035186;28;19928;-74
2022/07/21 08:25:25;;;;;;;;;;;19.70;99.90;;;;;;5044030;28;20312;-74
2022/07/21 08:27:50;;;;;;;;;;;19.70;99.90;;;;;;5036381;28;19913;-74
2022/07/21 08:30:16;;;;;;;;;;;19.70;99.90;;;;;;5036036;28;19913;-73
2022/07/21 08:32:41;;;;;;;;;;;19.70;99.90;;;;;;5055102;28;19912;-74
2022/07/21 08:35:08;;;;;;;;;;;19.70;99.90;;;;;;5040446;28;19913;-76
2022/07/21 08:37:35;;;;;;;;;;;19.70;99.90;;;;;;5035712;28;19960;-75
2022/07/21 08:40:00;;;;;;;;;;;19.70;99.90;;;;;;5043206;28;19919;-75
2022/07/21 08:42:26;;;;;;;;;;;19.70;99.90;;;;;;5049149;28;19913;-75
2022/07/21 08:44:52;;;;;;;;;;;19.60;99.90;;;;;;5036079;28;19925;-78
2022/07/21 08:47:17;;;;;;;;;;;19.60;99.90;;;;;;5039905;28;19991;-75
2022/07/21 08:49:45;;;;;;;;;;;19.50;99.90;;;;;;5035823;28;20304;-74
2022/07/21 08:52:11;;;;;;;;;;;19.40;99.90;;;;;;5049219;28;19924;-73
2022/07/21 08:54:36;;;;;;;;;;;19.50;99.90;;;;;;5052663;28;20318;-74
2022/07/21 08:57:02;;;;;;;;;;;19.50;99.90;;;;;;5052080;28;19979;-74
2022/07/21 08:59:28;;;;;;;;;;;19.50;99.90;;;;;;5039931;28;19909;-74
2022/07/21 09:01:53;;;;;;;;;;;19.50;99.90;;;;;;5035942;28;19909;-75
2022/07/21 09:04:23;;;;;;;;;;;19.40;99.90;;;;;;5034354;28;19916;-75
2022/07/21 09:06:56;;;;;;;;;;;19.40;99.90;;;;;;5035904;28;20303;-75
2022/07/21 09:09:23;;;;;;;;;;;19.30;99.90;;;;;;5035437;28;19962;-75
2022/07/21 09:11:49;;;;;;;;;;;19.30;99.90;;;;;;5034429;28;19983;-75
2022/07/21 09:14:18;;;;;;;;;;;19.30;99.90;;;;;;5035289;28;19972;-75
2022/07/21 09:16:46;;;;;;;;;;;19.30;99.90;;;;;;5046808;28;19921;-75
2022/07/21 09:19:23;;;;;;;;;;;19.30;99.90;;;;;;5050343;28;20066;-78
2022/07/21 09:21:50;;;;;;;;;;;19.30;99.90;;;;;;5045950;28;19913;-76
2022/07/21 09:24:18;;;;;;;;;;;19.30;99.90;;;;;;5031190;28;19971;-77
2022/07/21 09:27:10;;;;;;;;;;;19.20;99.90;;;;;;5033514;28;19936;-77
2022/07/21 09:29:48;;;;;;;;;;;19.20;99.90;;;;;;5023986;28;19945;-78
2022/07/21 09:32:34;;;;;;;;;;;19.00;99.90;;;;;;5035028;28;20375;-82
2022/07/21 09:35:00;;;;;;;;;;;19.00;99.90;;;;;;5041319;28;19917;-76
2022/07/21 09:37:26;;;;;;;;;;;18.90;99.90;;;;;;5053249;28;20334;-78
2022/07/21 09:39:53;;;;;;;;;;;18.80;99.90;;;;;;5043775;28;19909;-81
2022/07/21 09:42:23;;;;;;;;;;;18.80;99.90;;;;;;5033030;28;20220;-76
2022/07/21 09:44:50;;;;;;;;;;;18.80;99.90;;;;;;5034369;28;20031;-77
2022/07/21 09:47:18;;;;;;;;;;;18.80;99.90;;;;;;5032629;28;19921;-76
2022/07/21 09:49:44;;;;;;;;;;;18.70;99.90;;;;;;5034349;28;20205;-76
2022/07/21 09:52:22;;;;;;;;;;;18.70;99.90;;;;;;5035725;28;20008;-76
2022/07/21 09:54:48;;;;;;;;;;;18.70;99.90;;;;;;5032974;28;19913;-76
2022/07/21 09:57:15;;;;;;;;;;;18.60;99.90;;;;;;5034400;28;19920;-80
2022/07/21 09:59:42;;;;;;;;;;;18.70;99.90;;;;;;5033996;28;19935;-79
2022/07/21 10:02:10;;;;;;;;;;;18.60;99.90;;;;;;5034629;28;20255;-76
2022/07/21 10:04:36;;;;;;;;;;;18.60;99.90;;;;;;5034147;28;19920;-77
2022/07/21 10:07:01;;;;;;;;;;;18.60;99.90;;;;;;5033982;28;19913;-75
2022/07/21 10:09:27;;;;;;;;;;;18.70;99.90;;;;;;5034471;28;20224;-75
2022/07/21 10:11:53;;;;;;;;;;;18.70;99.90;;;;;;5034696;28;19953;-75
2022/07/21 10:14:19;;;;;;;;;;;18.80;99.90;;;;;;5033617;28;19999;-78
2022/07/21 10:16:45;;;;;;;;;;;18.80;99.90;;;;;;5032856;28;19992;-78
2022/07/21 10:19:27;;;;;;;;;;;18.70;99.90;;;;;;5034978;28;19929;-75
2022/07/21 10:21:56;;;;;;;;;;;18.60;99.90;;;;;;5034344;28;19921;-75
2022/07/21 10:24:22;;;;;;;;;;;18.60;99.90;;;;;;5034760;28;19913;-77
2022/07/21 10:27:07;;;;;;;;;;;18.70;99.90;;;;;;5032974;28;19936;-75
2022/07/21 10:29:48;;;;;;;;;;;18.60;99.90;;;;;;5032918;28;20006;-75
2022/07/21 10:32:14;;;;;;;;;;;18.70;99.90;;;;;;5033489;28;19959;-75
2022/07/21 10:34:40;;;;;;;;;;;18.70;99.90;;;;;;5032414;28;20059;-75
2022/07/21 10:37:05;;;;;;;;;;;18.70;99.90;;;;;;5033124;28;20000;-75
2022/07/21 10:39:32;;;;;;;;;;;18.80;99.90;;;;;;5034776;28;19913;-76
2022/07/21 10:42:00;;;;;;;;;;;18.80;99.90;;;;;;5035479;28;19913;-77
2022/07/21 10:44:30;;;;;;;;;;;18.90;99.90;;;;;;5033501;28;20248;-75
2022/07/21 10:47:12;;;;;;;;;;;18.90;99.90;;;;;;5031107;28;19925;-78
2022/07/21 10:49:58;;;;;;;;;;;18.90;99.90;;;;;;5029092;28;19913;-76
2022/07/21 10:52:39;;;;;;;;;;;18.90;99.90;;;;;;5028237;28;20463;-76
2022/07/21 10:55:11;;;;;;;;;;;18.80;99.90;;;;;;5040618;28;20004;-77
2022/07/21 10:57:43;;;;;;;;;;;18.90;99.90;;;;;;5032779;28;19913;-75
2022/07/21 11:00:17;;;;;;;;;;;18.80;99.90;;;;;;5033172;28;19923;-75
2022/07/21 11:02:44;;;;;;;;;;;18.90;99.90;;;;;;5051711;28;19913;-80
2022/07/21 11:05:09;;;;;;;;;;;18.90;99.90;;;;;;5034581;28;19921;-76
2022/07/21 11:08:04;;;;;;;;;;;18.90;99.90;;;;;;5022838;28;19991;-77
2022/07/21 11:10:31;;;;;;;;;;;19.00;99.90;;;;;;5021173;28;20356;-75
2022/07/21 11:12:57;;;;;;;;;;;18.90;99.90;;;;;;5036457;28;19920;-76
2022/07/21 11:15:41;;;;;;;;;;;18.90;99.90;;;;;;5036180;28;19965;-75
2022/07/21 11:18:07;;;;;;;;;;;18.90;99.90;;;;;;5053993;28;19917;-76
2022/07/21 11:20:33;;;;;;;;;;;19.00;99.90;;;;;;5040483;28;19920;-75
2022/07/21 11:23:02;;;;;;;;;;;19.00;99.90;;;;;;5036269;28;19921;-75
2022/07/21 11:25:33;;;;;;;;;;;19.10;99.90;;;;;;5035129;28;19917;-76
2022/07/21 11:27:59;;;;;;;;;;;19.20;99.90;;;;;;5037421;28;19913;-75
2022/07/21 11:30:24;;;;;;;;;;;19.30;99.90;;;;;;5034922;28;19967;-75
2022/07/21 11:32:50;;;;;;;;;;;19.40;99.90;;;;;;5034609;28;19924;-74
2022/07/21 11:35:15;;;;;;;;;;;19.50;99.90;;;;;;5033312;28;19921;-74
2022/07/21 11:37:45;;;;;;;;;;;19.50;99.90;;;;;;5031333;28;20209;-75
2022/07/21 11:40:13;;;;;;;;;;;19.50;99.90;;;;;;5034111;28;20292;-75
2022/07/21 11:42:39;;;;;;;;;;;19.60;99.90;;;;;;5035295;28;19913;-74
2022/07/21 11:45:05;;;;;;;;;;;19.70;99.90;;;;;;5036388;28;19927;-75
2022/07/21 11:47:31;;;;;;;;;;;19.80;99.90;;;;;;5036647;28;20265;-75
2022/07/21 11:50:00;;;;;;;;;;;19.90;99.90;;;;;;5036270;28;20005;-75
2022/07/21 11:52:27;;;;;;;;;;;19.90;99.90;;;;;;5037135;28;19921;-75
2022/07/21 11:54:53;;;;;;;;;;;19.90;99.90;;;;;;5034884;28;20003;-76
2022/07/21 11:57:20;;;;;;;;;;;19.90;99.90;;;;;;5037125;28;19959;-76
2022/07/21 11:59:46;;;;;;;;;;;19.90;99.90;;;;;;5035498;28;20002;-76
2022/07/21 12:02:22;;;;;;;;;;;19.80;99.90;;;;;;5034997;28;19956;-75
2022/07/21 12:05:08;;;;;;;;;;;19.90;99.90;;;;;;5031791;28;19921;-75
2022/07/21 12:07:36;;;;;;;;;;;19.90;99.90;;;;;;5031488;28;20481;-75
2022/07/21 12:10:01;;;;;;;;;;;20.00;99.90;;;;;;5030178;28;19976;-75
2022/07/21 12:12:48;;;;;;;;;;;20.00;99.90;;;;;;5038438;28;19987;-76
2022/07/21 12:15:23;;;;;;;;;;;20.00;99.90;;;;;;5030171;28;19925;-75
2022/07/21 12:17:49;;;;;;;;;;;20.10;99.90;;;;;;5031817;28;19917;-77
2022/07/21 12:20:24;;;;;;;;;;;19.90;99.90;;;;;;5030956;28;19921;-76
2022/07/21 12:22:50;;;;;;;;;;;19.90;99.90;;;;;;5030099;28;19917;-77
2022/07/21 12:25:17;;;;;;;;;;;19.80;99.90;;;;;;5030917;28;19921;-77
2022/07/21 12:27:43;;;;;;;;;;;19.70;99.90;;;;;;5032372;28;19921;-75
2022/07/21 12:30:10;;;;;;;;;;;19.70;99.90;;;;;;5033018;28;19997;-75
2022/07/21 12:32:45;;;;;;;;;;;19.60;99.90;;;;;;5031204;28;19921;-74
2022/07/21 12:35:21;;;;;;;;;;;19.50;99.90;;;;;;5028944;28;19929;-75
2022/07/21 12:37:53;;;;;;;;;;;19.60;99.90;;;;;;5030874;28;19951;-77
2022/07/21 12:40:20;;;;;;;;;;;19.60;99.90;;;;;;5027915;28;19917;-77
2022/07/21 12:42:46;;;;;;;;;;;19.60;99.90;;;;;;5030030;28;20441;-77
2022/07/21 12:45:12;;;;;;;;;;;19.60;99.90;;;;;;5030143;28;19925;-76
2022/07/21 12:47:38;;;;;;;;;;;19.70;99.90;;;;;;5031151;28;19928;-74
2022/07/21 12:50:05;;;;;;;;;;;19.70;99.90;;;;;;5032681;28;19917;-78
2022/07/21 12:52:31;;;;;;;;;;;19.70;99.90;;;;;;5032303;28;19913;-75
2022/07/21 12:54:57;;;;;;;;;;;19.70;99.90;;;;;;5036113;28;19963;-75
2022/07/21 12:57:32;;;;;;;;;;;19.70;99.90;;;;;;5033856;28;19928;-75
2022/07/21 12:59:58;;;;;;;;;;;19.80;99.90;;;;;;5035137;28;19910;-77
2022/07/21 13:02:24;;;;;;;;;;;19.90;99.90;;;;;;5016661;28;20384;-75
2022/07/21 13:04:50;;;;;;;;;;;19.80;99.90;;;;;;5045187;28;20016;-75
2022/07/21 13:07:15;;;;;;;;;;;19.80;99.90;;;;;;5048923;28;19917;-76
2022/07/21 13:09:41;;;;;;;;;;;19.80;99.90;;;;;;5037556;28;19913;-77
2022/07/21 13:12:07;;;;;;;;;;;19.80;99.90;;;;;;5050389;28;19916;-74
2022/07/21 13:14:32;;;;;;;;;;;19.80;99.90;;;;;;5045095;28;19917;-75
2022/07/21 13:16:59;;;;;;;;;;;19.80;99.90;;;;;;5042315;28;19917;-76
2022/07/21 13:19:25;;;;;;;;;;;19.80;99.90;;;;;;5049508;28;20300;-76
2022/07/21 13:21:51;;;;;;;;;;;19.90;99.90;;;;;;5043910;28;20258;-76
2022/07/21 13:24:17;;;;;;;;;;;20.00;99.90;;;;;;5048309;28;19916;-75
2022/07/21 13:26:43;;;;;;;;;;;20.10;99.90;;;;;;5045217;28;19972;-77
2022/07/21 13:29:08;;;;;;;;;;;20.10;99.90;;;;;;5046043;28;20194;-76
2022/07/21 13:31:37;;;;;;;;;;;20.20;99.90;;;;;;5045060;28;19913;-75
2022/07/21 13:34:03;;;;;;;;;;;20.20;99.90;;;;;;5048096;28;19956;-77
2022/07/21 13:36:28;;;;;;;;;;;20.20;99.90;;;;;;5035186;28;19913;-75
2022/07/21 13:38:54;;;;;;;;;;;20.20;99.90;;;;;;5031543;28;20315;-75
2022/07/21 13:41:20;;;;;;;;;;;20.00;99.90;;;;;;5031559;28;19925;-75
2022/07/21 13:43:45;;;;;;;;;;;20.00;99.90;;;;;;5029307;28;19921;-76
2022/07/21 13:46:11;;;;;;;;;;;19.80;99.90;;;;;;5048436;28;19916;-77
2022/07/21 13:48:36;;;;;;;;;;;19.70;99.90;;;;;;5045343;28;19944;-75
2022/07/21 13:51:05;;;;;;;;;;;19.70;99.90;;;;;;5049785;28;19912;-74
2022/07/21 13:53:30;;;;;;;;;;;19.70;99.90;;;;;;5042566;28;19916;-75
2022/07/21 13:55:56;;;;;;;;;;;19.70;99.90;;;;;;5049698;28;20216;-74
2022/07/21 13:58:22;;;;;;;;;;;19.70;99.90;;;;;;5043619;28;19937;-76
2022/07/21 14:00:47;;;;;;;;;;;19.70;99.90;;;;;;5034449;28;19920;-75
2022/07/21 14:03:13;;;;;;;;;;;19.60;99.90;;;;;;5034088;28;19913;-76
2022/07/21 14:05:38;;;;;;;;;;;19.60;99.90;;;;;;5046700;28;19924;-77
2022/07/21 14:08:04;;;;;;;;;;;19.50;99.90;;;;;;5045778;28;19913;-76
2022/07/21 14:10:30;;;;;;;;;;;19.50;99.90;;;;;;5045536;28;19917;-76
2022/07/21 14:12:55;;;;;;;;;;;19.50;99.90;;;;;;5034358;28;20300;-77
2022/07/21 14:15:22;;;;;;;;;;;19.50;99.90;;;;;;5032729;28;19960;-77
2022/07/21 14:17:48;;;;;;;;;;;19.40;99.90;;;;;;5043330;28;20338;-80